CheckWX is a tool to help pilots better visualize weather data.  It is not intended as a substitute for an official pre-flight weather briefing.

05:44:55 UTC

46U METAR
Alpine Airport
Alpine, Wyoming, USA
Current

10 mins ago

K46U 280535Z AUTO 00000KT 10SM CLR M11/M12 A3046 RMK A01
Observed
Feb-28 @ 05:35 UTC
Visibility
10 SM
Flight Rules
VFR
Cloud Levels
  • Clear skies
Temperature
-11°C / 12°F
Dewpoint
-12°C / 10°F
Humidity
92%
Altimeter
30.46" Hg
Pressure
1031.52 hPa
Previous

30 mins ago

K46U 280515Z AUTO 00000KT 10SM CLR M12/M13 A3046 RMK A01
Observed
Feb-28 @ 05:15 UTC
Visibility
10 SM
Flight Rules
VFR
Cloud Levels
  • Clear skies
Temperature
-12°C / 10°F
Dewpoint
-13°C / 9°F
Humidity
92%
Altimeter
30.46" Hg
Pressure
1031.52 hPa
Previous

50 mins ago

K46U 280455Z AUTO 30003KT 10SM CLR M11/M12 A3045 RMK A01
Observed
Feb-28 @ 04:55 UTC
Wind
  • 300° at 3 KTS
Visibility
10 SM
Flight Rules
VFR
Cloud Levels
  • Clear skies
Temperature
-11°C / 12°F
Dewpoint
-12°C / 10°F
Humidity
92%
Altimeter
30.45" Hg
Pressure
1031.12 hPa